createdAt,value
2022-11-04T00:00:31.731Z,10.01
2022-11-04T00:03:02.422Z,9.95
2022-11-04T00:05:31.604Z,9.90
2022-11-04T00:08:17.910Z,9.91
2022-11-04T00:11:04.650Z,9.78
2022-11-04T00:13:33.614Z,10.10
2022-11-04T00:16:20.275Z,9.89
2022-11-04T00:18:50.846Z,10.13
2022-11-04T00:21:37.602Z,10.32
2022-11-04T00:24:25.387Z,10.10
2022-11-04T00:27:12.258Z,9.86
2022-11-04T00:29:41.307Z,9.94
2022-11-04T00:32:28.392Z,10.04
2022-11-04T00:34:59.094Z,10.05
2022-11-04T00:37:28.031Z,10.08
2022-11-04T00:39:57.031Z,10.06
2022-11-04T00:42:28.920Z,9.91
2022-11-04T00:44:57.678Z,9.90
2022-11-04T00:47:26.707Z,9.89
2022-11-04T00:49:55.516Z,9.98
2022-11-04T00:52:25.956Z,9.89
2022-11-04T00:54:54.810Z,10.12
2022-11-04T00:57:24.143Z,10.05
2022-11-04T00:59:53.253Z,9.91
2022-11-04T01:02:22.697Z,9.58
2022-11-04T01:04:52.151Z,10.07
2022-11-04T01:07:21.174Z,9.96
2022-11-04T01:09:51.760Z,9.81
2022-11-04T01:12:20.952Z,9.92
2022-11-04T01:14:49.914Z,9.94
2022-11-04T01:17:19.008Z,9.92
2022-11-04T01:19:48.102Z,9.85
2022-11-04T01:22:17.279Z,9.80
2022-11-04T01:24:45.985Z,9.89
2022-11-04T01:27:16.315Z,9.63
2022-11-04T01:29:45.269Z,9.87
2022-11-04T01:32:14.358Z,9.70
2022-11-04T01:34:43.748Z,9.58
2022-11-04T01:37:12.725Z,9.70
2022-11-04T01:39:41.764Z,9.93
2022-11-04T01:42:16.571Z,9.99
2022-11-04T01:44:54.273Z,9.76
2022-11-04T01:47:28.427Z,9.65
2022-11-04T01:50:01.925Z,9.82
2022-11-04T01:52:37.770Z,9.72
2022-11-04T01:55:14.116Z,9.79
2022-11-04T01:57:49.013Z,9.89
2022-11-04T02:00:18.559Z,9.85
2022-11-04T02:03:00.373Z,9.83
2022-11-04T02:05:30.752Z,9.75
2022-11-04T02:08:01.518Z,9.99
2022-11-04T02:10:31.951Z,9.86
2022-11-04T02:13:03.709Z,9.66
2022-11-04T02:15:42.643Z,9.71
2022-11-04T02:18:36.387Z,9.54
2022-11-04T02:21:48.941Z,9.62
2022-11-04T02:24:47.770Z,9.57
2022-11-04T02:27:33.183Z,9.41
2022-11-04T02:30:15.098Z,9.41
2022-11-04T02:33:07.911Z,9.79
2022-11-04T02:35:44.918Z,9.72
2022-11-04T02:38:26.508Z,9.75
2022-11-04T02:41:02.476Z,9.85
2022-11-04T02:43:37.782Z,9.86
2022-11-04T02:46:19.519Z,8.46
2022-11-04T02:48:51.646Z,9.84
2022-11-04T02:51:27.003Z,9.97
2022-11-04T02:54:04.647Z,9.84
2022-11-04T02:56:37.877Z,9.89
2022-11-04T02:59:14.032Z,9.96
2022-11-04T03:01:47.259Z,9.94
2022-11-04T03:04:20.253Z,9.32
2022-11-04T03:06:53.106Z,9.68
2022-11-04T03:09:24.281Z,9.60
2022-11-04T03:11:59.193Z,9.66
2022-11-04T03:14:36.062Z,9.46
2022-11-04T03:17:10.264Z,7.91
2022-11-04T03:19:43.699Z,8.78
2022-11-04T03:22:17.278Z,9.46
2022-11-04T03:24:48.831Z,8.97
2022-11-04T03:27:25.506Z,9.54
2022-11-04T03:30:00.722Z,9.58
2022-11-04T03:32:40.061Z,9.72
2022-11-04T03:35:09.991Z,9.69
2022-11-04T03:37:38.992Z,9.89
2022-11-04T03:40:09.822Z,9.52
2022-11-04T03:42:44.655Z,9.93
2022-11-04T03:45:18.275Z,9.86
2022-11-04T03:47:48.759Z,9.87
2022-11-04T03:50:24.838Z,9.84
2022-11-04T03:52:54.324Z,9.40
2022-11-04T03:55:25.847Z,9.62
2022-11-04T03:57:59.918Z,9.64
2022-11-04T04:00:35.348Z,9.75
2022-11-04T04:03:09.723Z,9.61
2022-11-04T04:05:44.500Z,9.71
2022-11-04T04:08:27.000Z,9.52
2022-11-04T04:11:06.712Z,9.68
2022-11-04T04:13:43.809Z,8.77
2022-11-04T04:16:22.106Z,9.64
2022-11-04T04:18:59.413Z,8.48
2022-11-04T04:21:33.382Z,9.38
2022-11-04T04:24:25.387Z,9.52
2022-11-04T04:27:14.144Z,7.96
2022-11-04T04:29:45.560Z,9.60
2022-11-04T04:32:18.267Z,9.47
2022-11-04T04:34:48.768Z,9.47
2022-11-04T04:37:22.608Z,9.52
2022-11-04T04:40:11.613Z,9.42
2022-11-04T04:42:58.443Z,9.16
2022-11-04T04:45:33.458Z,9.59
2022-11-04T04:48:02.966Z,9.16
2022-11-04T04:50:38.533Z,9.44
2022-11-04T04:53:07.909Z,9.38
2022-11-04T04:55:40.737Z,9.49
2022-11-04T04:58:11.935Z,9.39
2022-11-04T05:00:40.859Z,9.59
2022-11-04T05:03:10.368Z,9.44
2022-11-04T05:05:44.450Z,9.46
2022-11-04T05:08:14.298Z,9.47
2022-11-04T05:10:43.404Z,8.96
2022-11-04T05:13:30.295Z,9.46
2022-11-04T05:16:04.499Z,9.51
2022-11-04T05:18:34.036Z,9.52
2022-11-04T05:21:06.459Z,9.53
2022-11-04T05:23:36.106Z,8.61
2022-11-04T05:26:05.572Z,9.39
2022-11-04T05:28:38.727Z,9.05
2022-11-04T05:31:08.756Z,9.20
2022-11-04T05:33:37.864Z,9.39
2022-11-04T05:36:11.738Z,9.22
2022-11-04T05:38:42.503Z,9.33
2022-11-04T05:41:26.142Z,9.31
2022-11-04T05:44:00.428Z,9.33
2022-11-04T05:46:30.638Z,9.31
2022-11-04T05:49:08.141Z,9.48
2022-11-04T05:51:38.843Z,7.97
2022-11-04T05:54:08.009Z,8.82
2022-11-04T05:56:40.652Z,9.59
2022-11-04T05:59:12.005Z,9.45
2022-11-04T06:01:44.195Z,9.62
2022-11-04T06:04:20.969Z,9.72
2022-11-04T06:07:31.669Z,9.96
2022-11-04T06:10:06.947Z,9.78
2022-11-04T06:12:36.487Z,9.72
2022-11-04T06:15:07.595Z,9.75
2022-11-04T06:17:38.267Z,9.60
2022-11-04T06:20:09.429Z,9.48
2022-11-04T06:22:41.179Z,9.93
2022-11-04T06:25:13.901Z,9.73
2022-11-04T06:27:43.019Z,9.70
2022-11-04T06:30:13.396Z,9.90
2022-11-04T06:32:42.879Z,10.10
2022-11-04T06:35:15.835Z,9.99
2022-11-04T06:37:46.670Z,10.22
2022-11-04T06:40:22.098Z,9.42
2022-11-04T06:42:59.809Z,10.14
2022-11-04T06:45:31.120Z,10.16
2022-11-04T06:48:02.219Z,8.62
2022-11-04T06:50:54.991Z,8.76
2022-11-04T06:53:32.594Z,9.94
2022-11-04T06:56:08.858Z,9.53
2022-11-04T06:58:45.859Z,8.86
2022-11-04T07:01:21.261Z,10.17
2022-11-04T07:04:11.811Z,10.20
2022-11-04T07:06:55.178Z,10.22
2022-11-04T07:09:28.411Z,10.39
2022-11-04T07:11:57.304Z,8.32
2022-11-04T07:14:29.632Z,9.63
2022-11-04T07:16:58.892Z,10.66
2022-11-04T07:19:29.306Z,9.87
2022-11-04T07:21:58.855Z,10.54
2022-11-04T07:24:30.628Z,10.45
2022-11-04T07:26:59.728Z,10.24
2022-11-04T07:29:31.003Z,10.57
2022-11-04T07:31:59.960Z,10.36
2022-11-04T07:34:29.859Z,10.36
2022-11-04T07:37:00.309Z,10.81
2022-11-04T07:39:30.759Z,10.57
2022-11-04T07:41:59.943Z,10.59
2022-11-04T07:44:34.210Z,10.85
2022-11-04T07:47:03.171Z,9.96
2022-11-04T07:49:32.199Z,10.85
2022-11-04T07:52:01.481Z,10.58
2022-11-04T07:54:31.882Z,10.71
2022-11-04T07:57:30.970Z,10.67
2022-11-04T08:00:05.791Z,11.30
2022-11-04T08:02:47.175Z,10.79
2022-11-04T08:05:16.636Z,12.00
2022-11-04T08:07:46.019Z,12.20
2022-11-04T08:10:16.222Z,12.56
2022-11-04T08:12:48.236Z,12.59
2022-11-04T08:15:17.349Z,12.22
2022-11-04T08:17:46.293Z,11.66
2022-11-04T08:20:15.572Z,11.79
2022-11-04T08:22:48.756Z,11.72
2022-11-04T08:25:19.346Z,11.23
2022-11-04T08:28:01.079Z,11.45
2022-11-04T08:30:33.771Z,10.67
2022-11-04T08:33:02.803Z,11.83
2022-11-04T08:35:35.890Z,11.39
2022-11-04T08:38:08.746Z,11.60
2022-11-04T08:40:39.471Z,11.50
2022-11-04T08:43:09.812Z,11.45
2022-11-04T08:45:45.453Z,11.22
2022-11-04T08:48:16.664Z,11.14
2022-11-04T08:50:49.819Z,11.23
2022-11-04T08:53:18.783Z,11.16
2022-11-04T08:55:49.275Z,10.98
2022-11-04T08:58:20.158Z,11.07
2022-11-04T09:00:49.823Z,10.57
2022-11-04T09:03:19.344Z,10.59
2022-11-04T09:05:49.469Z,11.45
2022-11-04T09:08:19.579Z,11.91
2022-11-04T09:10:50.040Z,12.25
2022-11-04T09:13:19.688Z,11.76
2022-11-04T09:15:50.297Z,11.63
2022-11-04T09:18:20.034Z,10.75
2022-11-04T09:20:49.455Z,11.87
2022-11-04T09:23:18.536Z,11.65
2022-11-04T09:25:52.768Z,10.99
2022-11-04T09:28:22.408Z,10.77
2022-11-04T09:30:53.116Z,9.95
2022-11-04T09:33:28.811Z,9.65
2022-11-04T09:36:03.424Z,9.65
2022-11-04T09:38:34.056Z,10.12
2022-11-04T09:41:12.758Z,11.10
2022-11-04T09:43:53.433Z,8.77
2022-11-04T09:46:24.785Z,10.44
2022-11-04T09:49:03.481Z,10.39
2022-11-04T09:51:56.944Z,10.98
2022-11-04T09:54:34.014Z,9.92
2022-11-04T09:57:05.967Z,10.44
2022-11-04T09:59:36.222Z,11.42
2022-11-04T10:02:22.560Z,11.22
2022-11-04T10:05:10.041Z,10.76
2022-11-04T10:08:05.486Z,9.31
2022-11-04T10:10:46.052Z,11.53
2022-11-04T10:13:28.663Z,11.22
2022-11-04T10:16:24.263Z,10.35
2022-11-04T10:19:21.840Z,12.09
2022-11-04T10:22:03.368Z,12.00
2022-11-04T10:24:43.774Z,11.54
2022-11-04T10:30:35.182Z,10.53
2022-11-04T10:33:10.980Z,10.40
2022-11-04T10:36:02.077Z,10.86
2022-11-04T10:38:37.780Z,10.61
2022-11-04T10:41:21.947Z,10.80
2022-11-04T10:43:53.542Z,11.15
2022-11-04T10:46:39.022Z,10.95
2022-11-04T10:49:39.612Z,11.41
2022-11-04T10:52:10.531Z,10.67
2022-11-04T10:54:42.350Z,11.04
2022-11-04T10:57:13.196Z,10.64
2022-11-04T10:59:53.177Z,10.43
2022-11-04T11:02:45.891Z,10.38
2022-11-04T11:05:25.342Z,10.42
2022-11-04T11:07:56.560Z,10.35
2022-11-04T11:10:28.230Z,11.22
2022-11-04T11:13:02.272Z,11.13
2022-11-04T11:15:35.382Z,11.09
2022-11-04T11:18:18.540Z,10.94
2022-11-04T11:20:52.418Z,11.19
2022-11-04T11:23:43.820Z,11.24
2022-11-04T11:26:16.650Z,10.57
2022-11-04T11:28:58.379Z,10.83
2022-11-04T11:31:39.378Z,11.03
2022-11-04T11:34:20.127Z,11.15
2022-11-04T11:36:50.863Z,10.92
2022-11-04T11:39:23.094Z,10.60
2022-11-04T11:41:55.568Z,10.21
2022-11-04T11:45:09.068Z,10.61
2022-11-04T11:48:48.700Z,11.19
2022-11-04T11:51:31.704Z,11.19
2022-11-04T11:54:19.484Z,10.27
2022-11-04T11:57:12.798Z,10.13
2022-11-04T12:20:43.001Z,11.29
2022-11-04T12:23:19.862Z,10.93
2022-11-04T12:26:01.859Z,11.31
2022-11-04T12:28:44.530Z,11.19
2022-11-04T12:31:25.095Z,11.20
2022-11-04T12:34:07.717Z,11.06
2022-11-04T12:36:54.945Z,10.73
2022-11-04T12:39:40.837Z,10.37
2022-11-04T12:42:21.438Z,10.51
2022-11-04T12:45:03.758Z,10.80
2022-11-04T12:47:38.255Z,10.46
2022-11-04T12:50:47.022Z,10.27
2022-11-04T12:53:41.986Z,10.88
2022-11-04T12:56:12.266Z,10.80
2022-11-04T12:59:10.791Z,10.51
2022-11-04T13:01:45.827Z,10.42
2022-11-04T13:04:24.665Z,10.41
2022-11-04T13:06:56.854Z,10.47
2022-11-04T13:09:35.535Z,10.45
2022-11-04T13:12:09.658Z,10.66
2022-11-04T13:14:46.195Z,10.75
2022-11-04T13:17:20.004Z,10.63
2022-11-04T13:19:52.409Z,10.19
2022-11-04T13:22:24.931Z,10.46
2022-11-04T13:25:00.092Z,10.58
2022-11-04T13:27:34.894Z,10.80
2022-11-04T13:30:08.783Z,10.43
2022-11-04T13:32:48.882Z,10.05
2022-11-04T13:35:24.570Z,10.00
2022-11-04T13:37:59.987Z,10.42
2022-11-04T13:40:44.514Z,9.61
2022-11-04T13:43:45.669Z,10.49
2022-11-04T13:46:26.069Z,9.63
2022-11-04T13:49:03.893Z,10.30
2022-11-04T13:51:41.634Z,9.29
2022-11-04T13:54:32.955Z,10.08
2022-11-04T13:57:12.913Z,9.01
2022-11-04T14:00:06.129Z,10.07
2022-11-04T14:02:42.431Z,9.71
2022-11-04T14:06:05.091Z,10.01
2022-11-04T14:09:01.493Z,9.95
2022-11-04T14:11:34.797Z,8.17
2022-11-04T14:14:22.097Z,8.04
2022-11-04T14:16:51.750Z,7.96
2022-11-04T14:20:00.893Z,9.18
2022-11-04T14:22:39.054Z,9.90
2022-11-04T14:25:40.469Z,9.74
2022-11-04T14:28:28.443Z,9.90
2022-11-04T14:31:01.118Z,9.76
2022-11-04T14:33:42.175Z,9.86
2022-11-04T14:36:31.988Z,9.92
2022-11-04T14:39:05.508Z,9.85
2022-11-04T14:42:07.005Z,9.94
2022-11-04T14:44:38.769Z,9.64
2022-11-04T14:47:20.303Z,9.93
2022-11-04T14:49:52.381Z,9.88
2022-11-04T14:52:25.465Z,9.77
2022-11-04T14:54:58.883Z,9.90
2022-11-04T14:57:31.934Z,9.92
2022-11-04T15:00:01.508Z,10.02
2022-11-04T15:02:33.974Z,10.11
2022-11-04T15:05:04.141Z,10.11
2022-11-04T15:07:35.905Z,9.90
2022-11-04T15:10:22.020Z,9.64
2022-11-04T15:12:54.809Z,9.77
2022-11-04T15:15:50.161Z,8.94
2022-11-04T15:18:28.269Z,9.87
2022-11-04T15:21:00.459Z,9.85
2022-11-04T15:23:38.468Z,9.90
2022-11-04T15:26:29.203Z,8.84
2022-11-04T15:29:01.497Z,10.00
2022-11-04T15:31:35.775Z,10.01
2022-11-04T15:34:14.529Z,9.67
2022-11-04T15:36:48.721Z,9.60
2022-11-04T15:39:23.229Z,8.43
2022-11-04T15:42:34.170Z,8.76
2022-11-04T15:45:27.215Z,9.94
2022-11-04T15:48:29.680Z,9.89
2022-11-04T15:51:22.651Z,9.88
2022-11-04T15:53:55.155Z,9.85
2022-11-04T15:56:27.203Z,9.47
2022-11-04T15:58:58.179Z,9.87
2022-11-04T16:01:29.287Z,9.78
2022-11-04T16:04:00.223Z,9.87
2022-11-04T16:06:42.351Z,9.78
2022-11-04T16:09:24.550Z,9.59
2022-11-04T16:12:15.586Z,9.59
2022-11-04T16:14:49.023Z,9.85
2022-11-04T16:17:18.290Z,9.93
2022-11-04T16:19:55.815Z,9.94
2022-11-04T16:22:30.491Z,9.60
2022-11-04T16:25:02.374Z,9.83
2022-11-04T16:27:36.029Z,9.65
2022-11-04T16:30:12.359Z,9.74
2022-11-04T16:32:48.158Z,9.57
2022-11-04T16:35:22.743Z,9.50
2022-11-04T16:37:53.952Z,8.93
2022-11-04T16:40:25.266Z,9.08
2022-11-04T16:42:57.908Z,9.88
2022-11-04T16:45:34.997Z,7.86
2022-11-04T16:48:04.652Z,8.64
2022-11-04T16:50:37.415Z,9.73
2022-11-04T16:53:08.126Z,9.72
2022-11-04T16:55:44.479Z,9.44
2022-11-04T16:58:20.263Z,9.91
2022-11-04T17:00:51.429Z,9.76
2022-11-04T17:03:28.875Z,9.66
2022-11-04T17:06:01.305Z,9.76
2022-11-04T17:08:32.493Z,9.79
2022-11-04T17:11:01.899Z,9.47
2022-11-04T17:14:07.675Z,9.44
2022-11-04T17:16:43.949Z,8.80
2022-11-04T17:19:20.798Z,9.37
2022-11-04T17:21:50.315Z,8.93
2022-11-04T17:24:21.151Z,9.54
2022-11-04T17:26:50.914Z,8.80
2022-11-04T17:29:20.515Z,9.54
2022-11-04T17:31:49.417Z,9.43
2022-11-04T17:34:19.042Z,9.52
2022-11-04T17:36:48.190Z,9.40
2022-11-04T17:39:17.499Z,9.40
2022-11-04T17:42:05.947Z,9.41
2022-11-04T17:44:36.080Z,9.45
2022-11-04T17:47:05.503Z,9.17
2022-11-04T17:50:39.968Z,9.40
2022-11-04T17:53:14.273Z,8.61
2022-11-04T17:55:46.719Z,8.08
2022-11-04T17:58:17.549Z,9.44
2022-11-04T18:00:46.555Z,9.58
2022-11-04T18:03:21.831Z,9.23
2022-11-04T18:06:27.383Z,9.29
2022-11-04T18:09:03.154Z,8.73
2022-11-04T18:11:52.517Z,9.09
2022-11-04T18:14:33.556Z,8.47
2022-11-04T18:21:56.383Z,9.06
2022-11-04T18:24:44.963Z,9.68
2022-11-04T18:27:39.034Z,9.01
2022-11-04T18:30:17.649Z,8.52
2022-11-04T18:32:54.505Z,8.86
2022-11-04T18:35:28.096Z,8.97
2022-11-04T18:38:02.919Z,9.57
2022-11-04T18:40:34.918Z,8.99
2022-11-04T18:43:13.285Z,8.90
2022-11-04T18:46:11.126Z,7.74
2022-11-04T18:48:56.815Z,8.67
2022-11-04T18:51:36.421Z,8.45
2022-11-04T18:54:14.848Z,8.86
2022-11-04T18:57:06.244Z,7.44
2022-11-04T18:59:36.651Z,9.39
2022-11-04T19:02:34.636Z,9.48
2022-11-04T19:05:14.961Z,7.65
2022-11-04T19:07:44.524Z,9.22
2022-11-04T19:10:15.031Z,9.17
2022-11-04T19:13:19.624Z,9.44
2022-11-04T19:15:52.140Z,8.02
2022-11-04T19:18:23.168Z,9.17
2022-11-04T19:20:54.150Z,8.68
2022-11-04T19:23:23.651Z,8.38
2022-11-04T19:25:54.832Z,8.32
2022-11-04T19:28:40.345Z,8.15
2022-11-04T19:31:18.230Z,8.19
2022-11-04T19:33:50.507Z,8.02
2022-11-04T19:36:23.839Z,7.42
2022-11-04T19:38:58.669Z,6.54
2022-11-04T19:41:48.205Z,7.88
2022-11-04T19:44:19.904Z,7.75
2022-11-04T19:46:49.290Z,7.84
2022-11-04T19:49:20.508Z,7.88
2022-11-04T19:51:54.768Z,7.58
2022-11-04T19:54:24.802Z,7.81
2022-11-04T19:56:56.849Z,7.88
2022-11-04T19:59:25.986Z,7.75
2022-11-04T20:01:55.764Z,7.40
2022-11-04T20:04:26.876Z,7.43
2022-11-04T20:06:56.143Z,7.57
2022-11-04T20:09:26.270Z,7.60
2022-11-04T20:12:13.064Z,7.39
2022-11-04T20:14:44.216Z,7.41
2022-11-04T20:17:13.026Z,7.55
2022-11-04T20:19:43.713Z,7.23
2022-11-04T20:22:12.987Z,6.96
2022-11-04T20:24:42.092Z,7.31
2022-11-04T20:35:22.585Z,6.32
2022-11-04T20:40:49.442Z,6.25
2022-11-04T20:43:18.619Z,7.37
2022-11-04T20:45:52.207Z,7.33
2022-11-04T20:48:21.826Z,7.30
2022-11-04T20:50:52.972Z,7.08
2022-11-04T20:53:23.361Z,7.24
2022-11-04T20:55:52.521Z,7.37
2022-11-04T20:58:21.998Z,7.49
2022-11-04T21:00:51.722Z,7.59
2022-11-04T21:03:27.795Z,7.66
2022-11-04T21:05:58.624Z,7.62
2022-11-04T21:08:28.677Z,7.60
2022-11-04T21:11:01.312Z,7.69
2022-11-04T21:13:31.247Z,7.71
2022-11-04T21:16:01.779Z,7.46
2022-11-04T21:18:31.899Z,7.43
2022-11-04T21:21:04.772Z,7.62
2022-11-04T21:23:34.967Z,7.37
2022-11-04T21:26:07.677Z,7.23
2022-11-04T21:28:45.252Z,7.37
2022-11-04T21:31:29.249Z,6.84
2022-11-04T21:33:59.833Z,6.26
2022-11-04T21:36:31.378Z,5.88
2022-11-04T21:39:01.481Z,6.50
2022-11-04T21:41:37.454Z,6.62
2022-11-04T21:44:09.567Z,6.56
2022-11-04T21:46:42.702Z,6.28
2022-11-04T21:49:14.580Z,6.12
2022-11-04T21:51:45.133Z,6.42
2022-11-04T21:54:13.939Z,6.35
2022-11-04T21:56:42.868Z,6.32
2022-11-04T21:59:17.920Z,6.28
2022-11-04T22:01:47.205Z,6.04
2022-11-04T22:04:17.079Z,6.19
2022-11-04T22:06:47.647Z,5.90
2022-11-04T22:09:19.575Z,6.14
2022-11-04T22:11:51.293Z,6.14
2022-11-04T22:14:20.359Z,5.99
2022-11-04T22:16:50.290Z,6.17
2022-11-04T22:19:19.365Z,6.07
2022-11-04T22:21:50.500Z,6.01
2022-11-04T22:24:20.134Z,5.70
2022-11-04T22:26:50.862Z,6.01
2022-11-04T22:29:19.641Z,5.98
2022-11-04T22:31:49.339Z,6.06
2022-11-04T22:34:19.055Z,5.74
2022-11-04T22:36:50.016Z,5.91
2022-11-04T22:39:18.895Z,5.97
2022-11-04T22:41:48.548Z,5.90
2022-11-04T22:44:18.012Z,5.58
2022-11-04T22:46:47.333Z,5.43
2022-11-04T22:49:16.650Z,5.75
2022-11-04T22:51:46.150Z,5.29
2022-11-04T22:54:17.501Z,5.64
2022-11-04T22:56:46.738Z,5.57
2022-11-04T22:59:16.148Z,5.44
2022-11-04T23:01:45.405Z,5.53
2022-11-04T23:04:14.694Z,5.53
2022-11-04T23:06:44.326Z,5.38
2022-11-04T23:09:14.162Z,5.29
2022-11-04T23:12:02.238Z,5.49
2022-11-04T23:14:49.067Z,5.38
2022-11-04T23:17:38.597Z,5.47
2022-11-04T23:20:10.099Z,5.43
2022-11-04T23:22:57.111Z,5.25
2022-11-04T23:25:27.201Z,5.38
2022-11-04T23:28:14.912Z,5.35
2022-11-04T23:30:46.992Z,5.18
2022-11-04T23:33:16.499Z,5.45
2022-11-04T23:36:05.095Z,5.13
2022-11-04T23:38:35.507Z,5.40
2022-11-04T23:41:24.352Z,5.23
2022-11-04T23:43:57.826Z,5.11
2022-11-04T23:46:46.679Z,5.33
2022-11-04T23:49:33.220Z,5.31
2022-11-04T23:52:19.687Z,5.24
2022-11-04T23:55:06.458Z,5.39
2022-11-04T23:57:54.405Z,5.37
